Rives, MO (63875)

02:01 CDT le 03 septembre 2014 (GMT -0500)
KC0UFP WX | Change Station
CLOSE
Current Station
Stations météorologiques personnelles
Location: Kennett, MO
Altitude: 262 ft
Stations météo à proximité

Alt. 262 ft 36.21 °N, 90.07 °W | Updated 10 minutes ago

Ciel dégagé
Ciel dégagé
70.3 ° F
Paraît 70.3 ° F
N
0.0
Vent Variable Vent de ESE

Aujourd'hui
Haut(e) -- | Bas -- ° F
--% Risque de précip.
Hier
Haut(e) -- | Bas -- ° F
Precip. -- pouce
6:33 AM 7:24 PM
Premier quartier, 59% visible
Pression 30.00 pouce
Visibilité 10.0 Miles terrestres
Nuages Ciel dégagé
Point de rosée 70 ° F
Humidité 99%
Précipitations 0.00 pouce
Profondeur de la couche neigeuse Non disponible.
UV 0 sur 12
Pollen 10.40 sur 12
Qualité de l'air Non disponible.
Flu Activity Non disponible.
METAR KHKA 030653Z AUTO 00000KT 10SM CLR 21/21 A3001 RMK AO2 SLP158 T02110206

More Conditions Fewer Conditions

Pression 30.00 pouce
Visibilité 10.0 Miles terrestres
Nuages Ciel dégagé
Point de rosée 70 ° F
Humidité 99%
Précipitations 0.00 pouce
Profondeur de la couche neigeuse Non disponible.
UV 0 sur 12
Pollen 10.40 sur 12
Qualité de l'air Non disponible.
Flu Activity Non disponible.
METAR KHKA 030653Z AUTO 00000KT 10SM CLR 21/21 A3001 RMK AO2 SLP158 T02110206

More Conditions Fewer Conditions

10-Day Weather Forecast

Almanac

Astronomie

Sep. 03, 2014 Lever Coucher
Temps réel 06:33 CDT 19:24 CDT
Crépuscule civil 06:07 CDT 19:50 CDT
Crépuscule nautique 05:36 CDT 20:21 CDT
Crépuscule astronomique 05:04 CDT 20:53 CDT
Lune 15:01 CDT 00:33 CDT
Durée de lumière visible 13h 43m
Longueur du jour
12h 51m
Tomorrow will be 2m 13s shorter.
Premier quartier, 59% of the Moon is Illuminated
Aujourd'hui
Premier quartier
Sep 8
Pleine lune
Sep 15
Dernier quartier
Sep 24
Nouveau
Oct 1
Premier quartier

Extrêmes aujourd'hui

State Highs State Lows

Community

WunderPhotos

Upload Photos

1,749,888 Photos téléchargées !

Nearby

Épaisseur de neige

Station Depth Altitude
Pas de nouvelles chutes de neige

Activité sismique

Ville Distance Mag. Time & Date
Tiptonville, Tennessee 34 Miles terrestres 2.9 23:19 CDT
2014-08-31
Minimum magnitude displayed is 2.5.

Températures des eaux côtières

Lieu Température
Aucun rapport de station

Stations météo à proximité